Latest Weather Observations for Mount Gambier

IDS60801

Issued at 4:05 pm CST Wednesday 30 July 2014 (issued every 30 minutes, with the page automatically refreshed every 10 minutes)

About weather observations | Map of weather stations | Latest weather observations for SA | Other Formats
Station Details ID: 026021 Name: MOUNT GAMBIER AERO Lat: -37.75 Lon: 140.77 Height: 63.0 m
Data from the previous 72 hours. | See also: Recent months at Mount Gambier
Date/Time
CST
Temp
°C
App
Temp
°C
Dew
Point
Rel
Hum
%
Delta-T
°C
Wind Press
QNH
hPa
Press
MSL
hPa
Rain
since 9 am
mm
Dir
 
Spd
km/h
Gust
km/h
Spd
kts
Gust
kts
30/04:00pm 14.7 8.3 9.3 70 2.8 NW 33 52 18 28 1008.3 - 0.6
30/03:30pm 15.3 7.3 9.1 66 3.2 NW 41 63 22 34 1008.4 - 0.6
30/03:24pm 15.4 8.6 9.2 66 3.2 NW 35 57 19 31 1008.4 - 0.6
30/03:00pm 15.2 7.7 9.6 69 2.9 NW 39 52 21 28 1008.5 1008.6 0.6
30/02:39pm 14.6 7.6 10.0 74 2.4 NW 37 56 20 30 1008.6 - 0.6
30/02:30pm 14.3 7.8 10.5 78 2.0 NW 35 48 19 26 1008.7 - 0.6
30/02:00pm 15.0 7.5 9.4 69 2.9 NW 39 57 21 31 1008.7 - 0.6
30/01:51pm 15.0 7.6 9.8 71 2.7 NW 39 57 21 31 1008.7 - 0.6
30/01:30pm 15.1 6.9 9.7 70 2.8 NW 43 56 23 30 1009.0 - 0.6
30/01:00pm 15.7 8.6 10.8 72 2.6 NW 39 57 21 31 1009.3 - 0.6
30/12:54pm 15.8 8.7 10.9 72 2.6 NW 39 57 21 31 1009.4 - 0.6
30/12:30pm 15.3 8.5 12.0 81 1.8 WNW 39 56 21 30 1009.9 - 0.6
30/12:08pm 14.5 8.1 12.1 85 1.3 WNW 37 56 20 30 1010.4 - 0.6
30/12:00pm 14.3 8.4 12.5 89 1.0 NW 35 50 19 27 1010.6 1010.7 0.6
30/11:29am 14.0 7.7 12.3 89 0.9 NW 37 63 20 34 1010.7 - 0.2
30/11:18am 14.3 8.8 12.3 88 1.1 NW 33 50 18 27 1010.8 - 0.0
30/11:09am 14.8 9.3 11.8 82 1.6 NW 32 50 17 27 1010.9 - 0.0
30/11:00am 15.0 8.8 11.3 78 2.0 WNW 35 48 19 26 1010.9 - 0.0
30/10:30am 14.7 8.6 11.7 82 1.6 WNW 35 54 19 29 1011.3 - 0.0
30/10:22am 14.5 8.3 11.3 81 1.7 WNW 35 54 19 29 1011.4 - 0.0
30/10:00am 14.7 8.5 11.3 80 1.8 NW 35 46 19 25 1011.3 - 0.0
30/09:49am 14.3 7.7 11.5 83 1.5 NW 37 52 20 28 1011.2 - 0.0
30/09:43am 14.0 8.4 11.6 85 1.3 NW 32 50 17 27 1011.2 - 0.0
30/09:34am 13.7 8.7 12.2 91 0.8 NW 30 39 16 21 1011.3 - 0.0
30/09:25am 14.1 8.6 11.7 85 1.3 WNW 32 50 17 27 1011.3 - 0.0
30/09:00am 13.6 8.1 11.7 88 1.0 NW 32 39 17 21 1011.4 1011.5 0.8
30/08:27am 13.4 7.5 11.1 86 1.2 NW 33 50 18 27 1011.3 - 0.8
30/08:23am 13.3 8.0 11.2 87 1.1 NW 30 50 16 27 1011.3 - 0.8
30/08:13am 13.0 8.5 11.5 91 0.8 NW 26 33 14 18 1011.2 - 0.4
30/08:00am 12.7 9.0 11.4 92 0.7 NNW 22 28 12 15 1011.2 - 0.4
30/07:30am 12.2 8.8 11.1 93 0.6 NNW 20 28 11 15 1011.2 - 0.4
30/07:00am 11.9 8.3 10.7 92 0.6 NNW 20 28 11 15 1011.0 - 0.4
30/06:30am 11.7 7.8 10.7 94 0.5 NNW 22 32 12 17 1010.7 - 0.4
30/06:00am 12.1 8.3 11.0 93 0.6 NNW 22 28 12 15 1010.7 1010.8 0.4
30/05:30am 12.3 8.9 11.2 93 0.6 NNW 20 32 11 17 1010.6 - 0.4
30/05:25am 12.3 9.1 11.4 94 0.5 NNW 19 30 10 16 1010.6 - 0.4
30/05:07am 12.6 8.1 11.3 92 0.7 NW 26 33 14 18 1010.7 - 0.4
30/05:00am 12.6 7.9 10.7 88 1.0 NW 26 33 14 18 1010.6 - 0.4
30/04:30am 12.7 7.5 10.4 86 1.2 NW 28 37 15 20 1010.7 - 0.4
30/04:00am 12.3 9.4 11.0 92 0.7 NNW 17 24 9 13 1010.6 - 0.4
30/03:30am 12.3 9.2 10.4 88 1.0 NNW 17 26 9 14 1011.0 - 0.4
30/03:00am 11.6 8.4 9.8 89 0.9 NW 17 22 9 12 1011.3 1011.4 0.4
30/02:30am 11.6 8.4 9.8 89 0.9 NW 17 22 9 12 1011.4 - 0.4
30/02:00am 11.8 8.1 10.0 89 0.9 WNW 20 30 11 16 1011.6 - 0.4
30/01:30am 12.0 8.0 10.3 89 0.9 NW 22 32 12 17 1011.7 - 0.4
30/01:00am 11.9 7.7 9.9 87 1.0 WNW 22 32 12 17 1011.9 - 0.4
30/12:47am 12.2 7.0 10.1 87 1.1 WNW 28 39 15 21 1011.9 - 0.4
30/12:33am 12.6 7.2 10.9 89 0.9 WNW 30 50 16 27 1012.0 - 0.4
30/12:32am 12.7 7.7 10.8 88 1.0 WNW 28 39 15 21 1012.1 - 0.4
30/12:30am 12.7 7.7 11.0 89 0.9 WNW 28 39 15 21 1012.1 - 0.4
30/12:00am 12.6 7.3 11.1 91 0.8 WNW 30 37 16 20 1012.0 1012.0 0.4
 
Date/Time
CST
Temp
°C
App
Temp
°C
Dew
Point
Rel
Hum
%
Delta-T
°C
Wind Press
QNH
hPa
Press
MSL
hPa
Rain
since 9 am
mm
Dir
 
Spd
km/h
Gust
km/h
Spd
kts
Gust
kts
29/11:44pm 12.7 6.9 10.8 88 1.0 WNW 32 46 17 25 1011.9 - 0.4
29/11:30pm 13.0 7.0 10.9 87 1.1 WNW 33 54 18 29 1011.9 - 0.4
29/11:28pm 13.0 7.8 11.5 91 0.8 WNW 30 52 16 28 1011.9 - 0.4
29/11:24pm 13.3 8.1 11.6 89 0.9 WNW 30 41 16 22 1011.7 - 0.4
29/11:00pm 13.6 7.7 11.0 84 1.4 NW 33 46 18 25 1011.4 - 0.2
29/10:30pm 13.7 8.4 11.3 85 1.3 NW 30 43 16 23 1011.3 - 0.2
29/10:00pm 13.6 7.9 11.3 86 1.2 NW 32 48 17 26 1010.9 - 0.2
29/09:30pm 13.5 8.4 11.8 89 0.9 NW 30 41 16 22 1010.9 - 0.2
29/09:19pm 13.5 8.0 11.8 89 0.9 NW 32 41 17 22 1010.9 - 0.2
29/09:03pm 13.6 8.1 11.7 88 1.0 NW 32 41 17 22 1010.6 - 0.2
29/09:00pm 13.6 8.8 11.7 88 1.0 NW 28 41 15 22 1010.6 1010.7 0.2
29/08:30pm 13.5 8.7 11.6 88 1.0 NW 28 35 15 19 1010.5 - 0.2
29/08:00pm 13.5 8.2 11.4 87 1.1 NW 30 37 16 20 1010.2 - 0.2
29/07:30pm 13.3 8.5 11.6 89 0.9 NW 28 37 15 20 1010.0 - 0.2
29/07:09pm 13.4 7.8 11.5 88 1.0 NW 32 43 17 23 1010.1 - 0.2
29/07:00pm 13.3 7.8 12.0 92 0.7 NW 32 50 17 27 1009.9 - 0.2
29/06:48pm 13.2 7.6 12.1 93 0.6 NW 33 50 18 27 1009.8 - 0.2
29/06:46pm 13.2 7.5 11.9 92 0.7 NW 33 50 18 27 1009.7 - 0.2
29/06:30pm 13.2 6.8 11.9 92 0.7 NW 37 52 20 28 1009.4 - 0.2
29/06:22pm 13.7 6.4 11.7 88 1.1 NW 41 63 22 34 1009.2 - 0.2
29/06:00pm 14.5 7.0 10.7 78 2.0 NW 41 65 22 35 1009.0 1009.1 0.0
29/05:30pm 14.4 6.8 10.6 78 2.0 NW 41 65 22 35 1008.6 - 0.0
29/05:10pm 14.7 7.0 10.3 75 2.3 WNW 41 59 22 32 1008.4 - 0.0
29/05:00pm 14.7 7.4 10.3 75 2.3 NW 39 54 21 29 1008.3 - 0.0
29/04:38pm 14.8 7.6 10.4 75 2.3 NW 39 59 21 32 1008.2 - 0.0
29/04:30pm 14.8 7.6 10.4 75 2.3 WNW 39 54 21 29 1008.1 - 0.0
29/04:00pm 15.2 8.0 10.5 73 2.5 WNW 39 57 21 31 1007.7 - 0.0
29/03:30pm 15.2 7.0 10.5 73 2.5 WNW 44 72 24 39 1007.5 - 0.0
29/03:00pm 15.5 6.5 10.4 71 2.7 WNW 48 74 26 40 1007.4 1007.5 0.0
29/02:30pm 15.7 7.6 10.8 72 2.6 WNW 44 72 24 39 1007.1 - 0.0
29/02:00pm 16.1 8.0 10.9 71 2.8 WNW 44 63 24 34 1006.8 - 0.0
29/01:49pm 15.1 5.7 11.4 78 2.0 WNW 52 70 28 38 1006.8 - 0.0
29/01:30pm 15.2 6.8 10.9 75 2.3 WNW 46 72 25 39 1006.7 - 0.0
29/01:00pm 14.2 6.0 11.8 85 1.3 WNW 46 76 25 41 1006.9 - 0.0
29/12:30pm 15.3 6.9 11.0 75 2.3 WNW 46 67 25 36 1006.9 - 0.0
29/12:00pm 15.8 7.8 11.0 73 2.6 WNW 44 63 24 34 1007.0 1007.1 0.0
29/11:30am 15.5 8.6 11.6 77 2.1 NW 39 59 21 32 1007.5 - 0.0
29/10:41am 14.8 7.1 11.5 80 1.8 NW 43 72 23 39 1007.3 - 0.0
29/10:30am 14.6 7.8 12.0 84 1.4 NW 39 56 21 30 1007.3 - 0.0
29/10:05am 13.9 7.5 12.1 89 1.0 NW 37 59 20 32 1007.5 - 0.0
29/09:59am 14.0 8.4 12.2 89 1.0 NW 33 46 18 25 1007.5 - 0.0
29/09:38am 14.3 8.7 12.1 87 1.2 NW 33 54 18 29 1007.6 - 0.0
29/09:30am 14.3 9.3 12.1 87 1.2 NW 30 41 16 22 1007.7 - 0.0
29/09:08am 14.0 8.2 11.6 85 1.3 NW 33 59 18 32 1007.4 - 0.0
29/09:00am 14.0 8.3 11.8 86 1.2 NW 33 48 18 26 1007.4 1007.5 3.4
29/08:48am 13.7 8.0 11.7 88 1.1 NW 33 44 18 24 1007.5 - 3.4
29/08:30am 13.2 7.5 11.9 92 0.7 NW 33 46 18 25 1007.5 - 3.4
29/08:00am 13.2 8.1 11.9 92 0.7 NW 30 52 16 28 1007.3 - 3.2
29/07:37am 13.1 8.3 11.8 92 0.7 NNW 28 50 15 27 1007.0 - 2.4
29/07:30am 13.1 8.3 11.8 92 0.7 NNW 28 43 15 23 1006.9 - 2.4
29/07:22am 13.3 8.1 11.6 89 0.9 NNW 30 43 16 23 1007.0 - 2.4
29/07:00am 13.4 8.1 11.3 87 1.1 NNW 30 43 16 23 1007.2 - 2.4
29/06:39am 13.5 7.8 11.2 86 1.2 NW 32 50 17 27 1007.3 - 2.4
29/06:30am 13.4 8.1 11.3 87 1.1 NNW 30 43 16 23 1007.3 - 2.4
29/06:00am 13.3 7.5 11.4 88 1.0 NNW 33 54 18 29 1006.9 1007.0 2.4
29/05:36am 13.1 7.5 11.4 89 0.9 NW 32 50 17 27 1007.0 - 2.4
29/05:30am 13.0 7.3 11.3 89 0.9 NNW 32 41 17 22 1007.0 - 2.4
29/05:14am 13.0 7.4 11.5 91 0.8 NW 32 50 17 27 1006.9 - 2.4
29/05:00am 12.7 6.9 11.4 92 0.7 NNW 33 43 18 23 1006.7 - 2.4
29/04:52am 12.5 6.7 11.4 93 0.6 NNW 33 48 18 26 1006.7 - 2.4
29/04:42am 12.4 6.2 11.5 94 0.5 NW 35 54 19 29 1006.7 - 2.4
29/04:30am 12.4 6.2 11.5 94 0.5 NNW 35 50 19 27 1006.7 - 2.2
29/04:29am 12.5 6.3 11.4 93 0.6 NNW 35 50 19 27 1006.7 - 2.0
29/04:01am 12.7 6.4 11.0 89 0.9 NNW 35 54 19 29 1006.6 - 1.4
29/04:00am 12.7 6.4 11.0 89 0.9 NNW 35 48 19 26 1006.7 - 1.4
29/03:58am 12.7 6.0 11.0 89 0.9 NNW 37 56 20 30 1006.6 - 1.4
29/03:33am 12.8 6.1 10.9 88 1.0 NNW 37 52 20 28 1006.7 - 1.4
29/03:30am 12.7 6.0 11.0 89 0.9 NNW 37 50 20 27 1006.8 - 1.4
29/03:19am 12.7 6.0 11.0 89 0.9 NNW 37 48 20 26 1006.9 - 1.4
29/03:00am 13.0 5.8 10.7 86 1.2 NNW 39 54 21 29 1007.0 1007.1 1.4
29/02:34am 12.8 6.8 10.7 87 1.1 NNW 33 52 18 28 1007.2 - 1.4
29/02:30am 12.6 6.8 10.9 89 0.9 NNW 32 44 17 24 1007.2 - 1.4
29/02:00am 12.2 6.4 10.7 90 0.8 NNW 32 50 17 27 1007.4 - 1.4
29/01:43am 12.2 6.2 10.7 90 0.8 NNW 33 52 18 28 1007.6 - 1.4
29/01:30am 12.6 6.5 10.5 87 1.1 NNW 33 50 18 27 1007.8 - 1.4
29/01:21am 12.5 6.4 10.6 88 1.0 NNW 33 44 18 24 1008.1 - 1.4
29/01:11am 12.5 6.4 10.6 88 1.0 NNW 33 52 18 28 1008.1 - 1.4
29/01:07am 12.5 6.1 10.6 88 1.0 NNW 35 52 19 28 1008.1 - 1.4
29/01:06am 12.5 6.1 10.6 88 1.0 NNW 35 52 19 28 1008.2 - 1.4
29/01:01am 12.4 6.4 10.7 89 0.9 NNW 33 52 18 28 1008.2 - 1.4
29/01:00am 12.4 6.6 10.7 89 0.9 NNW 32 46 17 25 1008.1 - 1.4
29/12:43am 12.2 6.4 10.7 90 0.8 NNW 32 46 17 25 1008.2 - 1.4
29/12:30am 12.4 6.6 10.7 89 0.9 NNW 32 48 17 26 1008.4 - 1.4
29/12:09am 12.1 7.4 10.8 92 0.7 N 26 41 14 22 1008.6 - 1.4
29/12:00am 12.1 7.4 10.8 92 0.7 N 26 37 14 20 1008.7 1008.8 1.4
 
Date/Time
CST
Temp
°C
App
Temp
°C
Dew
Point
Rel
Hum
%
Delta-T
°C
Wind Press
QNH
hPa
Press
MSL
hPa
Rain
since 9 am
mm
Dir
 
Spd
km/h
Gust
km/h
Spd
kts
Gust
kts
28/11:58pm 12.1 7.4 10.8 92 0.7 N 26 35 14 19 1008.7 - 1.4
28/11:30pm 11.8 7.5 10.6 92 0.6 NNW 24 33 13 18 1009.2 - 1.4
28/11:00pm 11.9 6.8 10.7 92 0.6 NNW 28 41 15 22 1009.6 - 1.4
28/10:30pm 11.8 6.7 10.6 92 0.6 NNW 28 43 15 23 1010.2 - 1.4
28/10:00pm 11.7 6.2 10.5 92 0.6 NNW 30 39 16 21 1010.4 - 1.4
28/09:30pm 11.8 7.1 10.6 92 0.6 N 26 35 14 19 1010.6 - 1.2
28/09:28pm 11.8 7.1 10.6 92 0.6 N 26 35 14 19 1010.6 - 1.2
28/09:09pm 11.9 6.5 10.9 94 0.5 NNW 30 39 16 21 1010.6 - 1.0
28/09:00pm 12.1 6.7 10.8 92 0.7 NNW 30 41 16 22 1010.5 1010.6 0.6
28/08:34pm 11.9 6.5 10.9 94 0.5 NNW 30 41 16 22 1010.6 - 0.6
28/08:30pm 11.9 6.5 10.9 94 0.5 NNW 30 41 16 22 1010.7 - 0.6
28/08:23pm 11.9 7.3 10.9 94 0.5 NNW 26 37 14 20 1010.8 - 0.4
28/08:00pm 12.0 7.7 10.7 92 0.7 N 24 35 13 19 1010.8 - 0.2
28/07:30pm 12.1 7.4 10.8 92 0.7 NNW 26 43 14 23 1010.8 - 0.2
28/07:25pm 12.0 7.4 10.9 93 0.6 NNW 26 37 14 20 1010.8 - 0.2
28/07:12pm 12.1 6.7 11.0 93 0.6 NNW 30 41 16 22 1010.7 - 0.2
28/07:00pm 12.6 7.0 10.3 86 1.2 NNW 30 41 16 22 1010.7 - 0.0
28/06:30pm 13.0 7.8 10.3 84 1.4 NNW 28 44 15 24 1010.7 - 0.0
28/06:00pm 12.8 7.6 10.3 85 1.3 NNW 28 41 15 22 1010.7 1010.8 0.0
28/05:30pm 13.1 7.9 10.4 84 1.4 NNW 28 35 15 19 1011.0 - 0.0
28/05:00pm 13.2 8.3 9.9 80 1.7 NNW 26 37 14 20 1010.8 - 0.0
28/04:30pm 13.8 9.5 9.5 75 2.2 NNW 22 30 12 16 1010.6 - 0.0
28/04:00pm 14.8 8.9 8.9 68 3.0 NNW 30 41 16 22 1010.8 - 0.0
28/03:30pm 15.2 8.6 8.5 64 3.4 NNW 33 50 18 27 1010.8 - 0.0
28/03:13pm 15.1 8.7 8.6 65 3.3 NNW 32 50 17 27 1010.7 - 0.0
28/03:00pm 15.5 9.2 8.9 65 3.4 NNW 32 48 17 26 1010.8 1010.9 0.0
28/02:30pm 15.4 9.4 8.8 65 3.4 NW 30 50 16 27 1011.2 - 0.0
28/02:00pm 15.8 8.5 8.6 62 3.7 NW 37 52 20 28 1011.4 - 0.0
28/01:43pm 15.4 8.9 8.3 62 3.6 NW 32 50 17 27 1011.4 - 0.0
28/01:30pm 16.7 10.5 9.2 61 3.9 NW 32 46 17 25 1011.8 - 0.0
28/01:00pm 15.3 9.8 9.1 66 3.2 NW 28 41 15 22 1012.2 - 0.0
28/12:30pm 15.9 9.8 9.8 67 3.2 NW 32 43 17 23 1012.5 - 0.0
28/12:00pm 14.6 9.0 10.2 75 2.3 NNW 30 39 16 21 1012.7 1012.7 0.0
28/11:30am 15.4 9.6 10.7 73 2.5 NNW 32 44 17 24 1012.9 - 0.0
28/11:12am 15.1 9.8 11.4 78 2.0 NNW 30 48 16 26 1013.3 - 0.0
28/11:00am 14.5 10.4 11.5 82 1.6 NNW 24 37 13 20 1013.6 - 0.0
28/10:41am 13.9 9.3 11.1 83 1.5 NNW 26 32 14 17 1013.7 - 0.0
28/10:30am 13.6 9.8 11.1 85 1.3 NNW 22 35 12 19 1013.9 - 0.0
28/10:00am 12.4 7.4 10.9 90 0.8 NNW 28 41 15 22 1014.1 - 0.0
28/09:30am 11.0 7.3 10.0 93 0.5 NNW 20 32 11 17 1014.2 - 0.0
28/09:00am 10.2 6.8 9.2 93 0.5 N 17 24 9 13 1014.0 1014.0 0.0
28/08:30am 9.8 6.4 9.0 95 0.4 N 17 24 9 13 1013.9 - 0.0
28/08:00am 9.3 6.5 8.5 95 0.4 N 13 17 7 9 1013.8 - 0.0
28/07:30am 9.7 7.0 8.9 95 0.4 N 13 20 7 11 1013.9 - 0.0
28/07:00am 9.1 5.8 8.1 93 0.5 N 15 22 8 12 1013.9 - 0.0
28/06:30am 8.9 5.1 7.6 91 0.6 N 17 28 9 15 1014.0 - 0.0
28/06:00am 8.9 4.7 7.6 91 0.6 N 19 26 10 14 1013.9 1013.9 0.0
28/05:30am 8.9 4.5 7.2 89 0.8 NNW 20 30 11 16 1014.0 - 0.0
28/05:00am 9.3 5.4 7.2 87 1.0 N 17 28 9 15 1013.9 - 0.0
28/04:30am 9.5 4.9 6.7 83 1.3 N 20 30 11 16 1013.9 - 0.0
28/04:00am 9.3 4.7 6.5 83 1.3 N 20 30 11 16 1014.0 - 0.0
28/03:30am 9.4 4.8 6.4 81 1.4 N 20 28 11 15 1014.2 - 0.0
28/03:00am 9.4 4.7 6.2 80 1.5 N 20 28 11 15 1014.3 1014.3 0.0
28/02:30am 9.4 4.9 6.2 80 1.5 N 19 28 10 15 1014.6 - 0.0
28/02:00am 9.1 5.0 6.1 81 1.4 N 17 22 9 12 1014.6 - 0.0
28/01:30am 9.4 5.7 6.4 81 1.4 N 15 20 8 11 1014.9 - 0.0
28/01:00am 8.9 4.9 6.5 85 1.1 N 17 22 9 12 1014.9 - 0.0
28/12:30am 9.1 5.4 6.5 84 1.2 N 15 20 8 11 1015.2 - 0.0
28/12:00am 8.9 5.6 6.5 85 1.1 N 13 15 7 8 1015.7 1015.8 0.0
 
Date/Time
CST
Temp
°C
App
Temp
°C
Dew
Point
Rel
Hum
%
Delta-T
°C
Wind Press
QNH
hPa
Press
MSL
hPa
Rain
since 9 am
mm
Dir
 
Spd
km/h
Gust
km/h
Spd
kts
Gust
kts
27/11:30pm 8.9 5.6 6.5 85 1.1 N 13 19 7 10 1015.9 - 0.0
27/11:00pm 9.6 6.0 6.6 81 1.4 N 15 26 8 14 1016.0 - 0.0
27/10:30pm 10.0 5.6 6.6 79 1.6 N 19 28 10 15 1015.9 - 0.0
27/10:00pm 10.2 6.2 6.8 79 1.6 N 17 26 9 14 1016.2 - 0.0
27/09:30pm 10.5 6.2 7.1 79 1.6 N 19 30 10 16 1016.5 - 0.0
27/09:00pm 10.7 6.2 7.1 78 1.7 N 20 24 11 13 1016.6 1016.7 0.0
27/08:30pm 11.0 6.6 7.5 79 1.7 N 20 30 11 16 1016.8 - 0.0
27/08:00pm 11.2 6.8 7.5 78 1.8 N 20 30 11 16 1016.6 - 0.0
27/07:30pm 11.3 6.2 7.6 78 1.8 N 24 30 13 16 1016.5 - 0.0
27/07:00pm 11.4 6.3 7.7 78 1.8 N 24 30 13 16 1016.4 - 0.0
27/06:30pm 11.0 7.0 8.1 82 1.4 N 19 26 10 14 1016.8 - 0.0
27/06:00pm 11.5 7.1 7.6 77 1.9 N 20 26 11 14 1016.9 1017.0 0.0
27/05:30pm 12.4 8.3 7.7 73 2.3 N 19 26 10 14 1016.9 - 0.0
27/05:00pm 13.2 9.0 7.5 68 2.8 N 19 28 10 15 1017.0 - 0.0
27/04:30pm 13.9 9.6 7.8 66 3.0 N 20 30 11 16 1016.8 - 0.0

Other Formats:

Comma delimited format used in spreadsheet applications
http://www.bom.gov.au/fwo/IDS60801/IDS60801.94821.axf

JavaScript Object Notation format (JSON) in row-major order
http://www.bom.gov.au/fwo/IDS60801/IDS60801.94821.json